AirNav   Pilot Hours Calculator
 
 1268 users online  

KBE Bell Island Hot Springs Seaplane Base
Bell Island, Alaska, USA

GOING TO BELL ISLAND?


FAA INFORMATION EFFECTIVE 10 OCTOBER 2019

Location

FAA Identifier: KBE
Lat/Long: 55-55-44.6810N 131-34-18.0860W
55-55.744683N 131-34.301433W
55.9290781,-131.5716906
(estimated)
Elevation: 0 ft. / 0 m (estimated)
Variation: 26E (1985)
Time zone: UTC -8 (UTC -9 during Standard Time)
Zip code: 99901

Seaplane Base Operations

Seaplane Base use: Private use. Permission required prior to landing
Activation date: 05/1959
Control tower: no
ARTCC: ANCHORAGE CENTER
FSS: KETCHIKAN FLIGHT SERVICE STATION [907-225-9481]
Alternate FSS: JNU JUNEAU FLIGHT SERVICE STATION [1-866-297-2236]
NOTAMs facility: KTN (NOTAM-D service not available)
Attendance: SUMMER DAYLIGHT HOURS
Wind indicator: yes
Segmented circle: no

Seaplane Base Communications

CTAF: 122.9

Nearby radio navigation aids

NDB name  Hdg/Dist  Freq  Var  ID
CLAM COVE346/35.439621ECMJ -.-. -- .---

Seaplane Base Services

Airframe service: NONE
Powerplant service: NONE
Bottled oxygen: NONE
Bulk oxygen: NONE

Runway Information

Runway NE/SW

Dimensions: 10600 x 2600 ft. / 3231 x 792 m
Surface: water
RUNWAY NE  RUNWAY SW
Elevation: 0.0 ft.0.0 ft.
Traffic pattern: leftleft
Runway end identifier lights: nono

Seaplane Base Ownership and Management from official FAA records

Ownership: Privately-owned
Owner: DONALD PETERSON
BELL ISLAND, AK 99901
Manager: DONALD PETERSON
BELL ISLAND, AK 99901

Seaplane Base Operational Statistics

Aircraft operations: avg 29/month *
86% transient general aviation
14% air taxi
* for 12-month period ending 18 May 1980

Additional Remarks

PRIVATE FACILITY; NO SERVICES OFFERED TO THE PUBLIC.

Instrument Procedures

There are no published instrument procedures at KBE.

Some nearby airports with instrument procedures:

PAKT - Ketchikan International Airport (35 nm S)
PAWG - Wrangell Airport (43 nm NW)
PAKW - Klawock Airport (55 nm W)
PAPG - Petersburg James A Johnson Airport (69 nm NW)
PAFE - Kake Airport (99 nm NW)
 
Loc | Ops | Rwys | IFR | FBO | Links
Com | Nav | Svcs | Stats | Notes

Crowley
 
Area around KBE (Bell Island Hot Springs Seaplane Base)
 
Road maps at: MapQuest Bing Google
 
Aerial photo
No photo
 
Sectional chart

 
Airport distance calculator
Flying to Bell Island Hot Springs Seaplane Base? Find the distance to fly.

From to KBE

Sunrise and sunset
Times for 14-Oct-2019
 Local
(UTC-8)
 Zulu
(UTC)
Morning civil twilight06:3914:39
Sunrise07:1715:17
Sunset17:4801:48
Evening civil twilight18:2502:25

Current date and time
Zulu (UTC)  14-Oct-2019 14:36:54
Local (UTC-8)  14-Oct-2019 06:36:54
 
METAR
PAKT 
35nm S 
141353Z AUTO 17004KT 10SM OVC110 04/03 A2995 RMK SLP143 T00440033 TSNO VIA AUTODIAL
PAWG 
43nm NW 
141356Z 09008KT 10SM CLR 04/02 A2995 RMK AO2 SLP142 T00390022
PAMM 
48nm S 
141256Z AUTO 10008G14KT 10SM BKN110 07/03 A2996 RMK AO2 SLP136 T00720028 $
TAF
PAKT 
35nm S 
141133Z 1412/1512 13005KT P6SM FEW005 BKN130 FM141700 14014G22KT P6SM -RA SCT020 OVC050 WS020/14035KT FM142100 14020G30KT 5SM RA BR BKN015 OVC025 WS020/14045KT FM150100 14028G38KT 4SM RA BR OVC012 WS020/11055KT FM150900 14020G30KT 4SM RA BR OVC012 WS020/13045KT AMD LTD TO CLD VIS AND WIND 1412/1415
PAWG 
43nm NW 
141133Z 1412/1512 09005KT P6SM FEW004 SCT250 FM142000 10015KT P6SM -RA BKN035 OVC050 WS020/12035KT FM150000 10018G28KT 4SM -RA BR BKN025 OVC035 WS020/09035KT FM150600 11020G30KT 5SM -RA BR BKN015 OVC025 AMD LTD TO CLD VIS AND WIND 1412/1415
NOTAMs
Click for the latest NOTAMs
NOTAMs are issued by the DoD/FAA and will open in a separate window not controlled by AirNav.

 

 
 

Would you like to see your business listed on this page?

 If your business provides an interesting product or service to pilots, flight crews, aircraft, or users of the Bell Island Hot Springs Seaplane Base, you should consider listing it here.  To start the listing process, click on the button below
 
Add a business
 

Other Pages about Bell Island Hot Springs Seaplane Base

Update a link
 
Copyright © AirNav, LLC. All rights reserved. Privacy Policy  Contact